sensor_id;sensor_type;location;lat;lon;timestamp;P1;durP1;ratioP1;P2;durP2;ratioP2
45039;SDS011;30778;53.574;7.770;2023-08-24T00:01:32;1.95;;;0.73;;
45039;SDS011;30778;53.574;7.770;2023-08-24T00:03:57;2.78;;;0.80;;
45039;SDS011;30778;53.574;7.770;2023-08-24T00:06:23;2.78;;;0.65;;
45039;SDS011;30778;53.574;7.770;2023-08-24T00:08:48;1.20;;;0.52;;
45039;SDS011;30778;53.574;7.770;2023-08-24T00:11:13;3.97;;;1.10;;
45039;SDS011;30778;53.574;7.770;2023-08-24T00:13:43;5.90;;;1.30;;
45039;SDS011;30778;53.574;7.770;2023-08-24T00:16:14;1.63;;;0.98;;
45039;SDS011;30778;53.574;7.770;2023-08-24T00:18:42;4.00;;;1.50;;
45039;SDS011;30778;53.574;7.770;2023-08-24T00:21:08;2.83;;;1.25;;
45039;SDS011;30778;53.574;7.770;2023-08-24T00:23:33;1.60;;;0.80;;
45039;SDS011;30778;53.574;7.770;2023-08-24T00:25:59;4.88;;;1.83;;
45039;SDS011;30778;53.574;7.770;2023-08-24T00:28:27;2.00;;;1.35;;
45039;SDS011;30778;53.574;7.770;2023-08-24T00:30:53;1.40;;;0.90;;
45039;SDS011;30778;53.574;7.770;2023-08-24T00:33:18;7.05;;;1.48;;
45039;SDS011;30778;53.574;7.770;2023-08-24T00:35:44;2.72;;;1.33;;
45039;SDS011;30778;53.574;7.770;2023-08-24T00:38:10;5.25;;;2.15;;
45039;SDS011;30778;53.574;7.770;2023-08-24T00:40:36;2.83;;;1.73;;
45039;SDS011;30778;53.574;7.770;2023-08-24T00:43:04;2.30;;;1.77;;
45039;SDS011;30778;53.574;7.770;2023-08-24T00:45:29;3.90;;;1.73;;
45039;SDS011;30778;53.574;7.770;2023-08-24T00:47:56;3.03;;;1.40;;
45039;SDS011;30778;53.574;7.770;2023-08-24T00:50:21;2.97;;;1.92;;
45039;SDS011;30778;53.574;7.770;2023-08-24T00:52:47;2.58;;;1.92;;
45039;SDS011;30778;53.574;7.770;2023-08-24T00:55:14;6.28;;;2.42;;
45039;SDS011;30778;53.574;7.770;2023-08-24T00:57:40;5.28;;;3.03;;
45039;SDS011;30778;53.574;7.770;2023-08-24T01:00:07;3.05;;;2.75;;
45039;SDS011;30778;53.574;7.770;2023-08-24T01:02:39;3.13;;;2.28;;
45039;SDS011;30778;53.574;7.770;2023-08-24T01:05:04;2.20;;;1.60;;
45039;SDS011;30778;53.574;7.770;2023-08-24T01:07:34;5.05;;;2.55;;
45039;SDS011;30778;53.574;7.770;2023-08-24T01:10:02;3.92;;;2.20;;
45039;SDS011;30778;53.574;7.770;2023-08-24T01:12:32;2.80;;;1.80;;
45039;SDS011;30778;53.574;7.770;2023-08-24T01:15:06;2.72;;;2.22;;
45039;SDS011;30778;53.574;7.770;2023-08-24T01:17:38;3.03;;;1.92;;
45039;SDS011;30778;53.574;7.770;2023-08-24T01:20:08;3.55;;;2.50;;
45039;SDS011;30778;53.574;7.770;2023-08-24T01:28:03;4.78;;;1.70;;
45039;SDS011;30778;53.574;7.770;2023-08-24T01:30:33;2.65;;;2.08;;
45039;SDS011;30778;53.574;7.770;2023-08-24T01:33:02;6.80;;;2.53;;
45039;SDS011;30778;53.574;7.770;2023-08-24T01:35:30;2.45;;;2.22;;
45039;SDS011;30778;53.574;7.770;2023-08-24T01:37:56;3.88;;;2.28;;
45039;SDS011;30778;53.574;7.770;2023-08-24T01:40:26;3.25;;;2.38;;
45039;SDS011;30778;53.574;7.770;2023-08-24T01:43:04;3.25;;;2.30;;
45039;SDS011;30778;53.574;7.770;2023-08-24T01:45:32;3.28;;;1.85;;
45039;SDS011;30778;53.574;7.770;2023-08-24T01:47:59;2.88;;;2.55;;
45039;SDS011;30778;53.574;7.770;2023-08-24T01:50:28;3.08;;;1.98;;
45039;SDS011;30778;53.574;7.770;2023-08-24T01:52:55;3.38;;;2.25;;
45039;SDS011;30778;53.574;7.770;2023-08-24T01:55:20;2.97;;;1.92;;
45039;SDS011;30778;53.574;7.770;2023-08-24T01:57:47;4.13;;;2.30;;
45039;SDS011;30778;53.574;7.770;2023-08-24T02:00:14;3.92;;;2.40;;
45039;SDS011;30778;53.574;7.770;2023-08-24T02:02:41;3.22;;;2.58;;
45039;SDS011;30778;53.574;7.770;2023-08-24T02:05:08;4.47;;;2.67;;
45039;SDS011;30778;53.574;7.770;2023-08-24T02:07:33;2.75;;;2.30;;
45039;SDS011;30778;53.574;7.770;2023-08-24T02:09:59;2.47;;;1.98;;
45039;SDS011;30778;53.574;7.770;2023-08-24T02:12:24;2.97;;;1.83;;
45039;SDS011;30778;53.574;7.770;2023-08-24T02:14:50;2.60;;;2.28;;
45039;SDS011;30778;53.574;7.770;2023-08-24T02:17:16;5.60;;;2.67;;
45039;SDS011;30778;53.574;7.770;2023-08-24T02:19:41;3.30;;;2.28;;
45039;SDS011;30778;53.574;7.770;2023-08-24T02:22:08;3.72;;;2.03;;
45039;SDS011;30778;53.574;7.770;2023-08-24T02:24:33;3.70;;;2.22;;
45039;SDS011;30778;53.574;7.770;2023-08-24T02:26:59;4.70;;;1.92;;
45039;SDS011;30778;53.574;7.770;2023-08-24T02:29:25;2.40;;;1.88;;
45039;SDS011;30778;53.574;7.770;2023-08-24T02:31:51;2.00;;;1.65;;
45039;SDS011;30778;53.574;7.770;2023-08-24T02:34:17;3.53;;;1.60;;
45039;SDS011;30778;53.574;7.770;2023-08-24T02:36:43;2.70;;;1.42;;
45039;SDS011;30778;53.574;7.770;2023-08-24T02:39:08;3.50;;;1.98;;
45039;SDS011;30778;53.574;7.770;2023-08-24T02:41:34;4.63;;;1.55;;
45039;SDS011;30778;53.574;7.770;2023-08-24T02:44:00;3.55;;;1.42;;
45039;SDS011;30778;53.574;7.770;2023-08-24T02:46:26;2.10;;;1.30;;
45039;SDS011;30778;53.574;7.770;2023-08-24T02:48:51;4.55;;;1.20;;
45039;SDS011;30778;53.574;7.770;2023-08-24T02:51:17;1.63;;;1.13;;
45039;SDS011;30778;53.574;7.770;2023-08-24T02:53:43;2.22;;;1.27;;
45039;SDS011;30778;53.574;7.770;2023-08-24T02:56:08;1.98;;;0.95;;
45039;SDS011;30778;53.574;7.770;2023-08-24T02:58:34;2.20;;;1.00;;
45039;SDS011;30778;53.574;7.770;2023-08-24T03:01:03;1.42;;;1.23;;
45039;SDS011;30778;53.574;7.770;2023-08-24T03:03:31;3.50;;;1.35;;
45039;SDS011;30778;53.574;7.770;2023-08-24T03:05:58;2.58;;;1.58;;
45039;SDS011;30778;53.574;7.770;2023-08-24T03:08:27;5.55;;;2.03;;
45039;SDS011;30778;53.574;7.770;2023-08-24T03:10:53;5.13;;;1.75;;
45039;SDS011;30778;53.574;7.770;2023-08-24T03:13:19;2.47;;;1.80;;
45039;SDS011;30778;53.574;7.770;2023-08-24T03:15:44;2.65;;;1.90;;
45039;SDS011;30778;53.574;7.770;2023-08-24T03:18:12;1.92;;;1.15;;
45039;SDS011;30778;53.574;7.770;2023-08-24T03:20:38;2.17;;;1.35;;
45039;SDS011;30778;53.574;7.770;2023-08-24T03:23:05;2.15;;;1.10;;
45039;SDS011;30778;53.574;7.770;2023-08-24T03:25:31;2.20;;;1.05;;
45039;SDS011;30778;53.574;7.770;2023-08-24T03:28:00;2.55;;;1.60;;
45039;SDS011;30778;53.574;7.770;2023-08-24T03:30:26;2.13;;;1.52;;
45039;SDS011;30778;53.574;7.770;2023-08-24T03:32:52;2.33;;;1.10;;
45039;SDS011;30778;53.574;7.770;2023-08-24T03:35:18;1.90;;;0.77;;
45039;SDS011;30778;53.574;7.770;2023-08-24T03:37:44;1.63;;;0.90;;
45039;SDS011;30778;53.574;7.770;2023-08-24T03:40:09;3.20;;;1.50;;
45039;SDS011;30778;53.574;7.770;2023-08-24T03:42:35;1.67;;;1.13;;
45039;SDS011;30778;53.574;7.770;2023-08-24T03:45:00;1.45;;;0.80;;
45039;SDS011;30778;53.574;7.770;2023-08-24T03:47:26;1.88;;;0.98;;
45039;SDS011;30778;53.574;7.770;2023-08-24T03:49:52;1.80;;;1.30;;
45039;SDS011;30778;53.574;7.770;2023-08-24T03:52:17;1.75;;;1.23;;
45039;SDS011;30778;53.574;7.770;2023-08-24T03:54:43;1.73;;;0.82;;
45039;SDS011;30778;53.574;7.770;2023-08-24T03:57:08;1.35;;;0.98;;
45039;SDS011;30778;53.574;7.770;2023-08-24T03:59:34;1.90;;;1.67;;
45039;SDS011;30778;53.574;7.770;2023-08-24T04:02:00;3.38;;;2.05;;
45039;SDS011;30778;53.574;7.770;2023-08-24T04:04:28;4.43;;;1.58;;
45039;SDS011;30778;53.574;7.770;2023-08-24T04:06:53;2.95;;;1.52;;
45039;SDS011;30778;53.574;7.770;2023-08-24T04:09:21;5.25;;;1.48;;
45039;SDS011;30778;53.574;7.770;2023-08-24T04:11:46;3.88;;;1.77;;
45039;SDS011;30778;53.574;7.770;2023-08-24T04:14:14;1.83;;;1.63;;
45039;SDS011;30778;53.574;7.770;2023-08-24T04:16:42;2.20;;;2.00;;
45039;SDS011;30778;53.574;7.770;2023-08-24T04:19:07;3.42;;;1.77;;
45039;SDS011;30778;53.574;7.770;2023-08-24T04:21:33;2.20;;;1.42;;
45039;SDS011;30778;53.574;7.770;2023-08-24T04:23:59;2.78;;;2.28;;
45039;SDS011;30778;53.574;7.770;2023-08-24T04:26:25;6.28;;;2.58;;
45039;SDS011;30778;53.574;7.770;2023-08-24T04:28:50;4.63;;;2.33;;
45039;SDS011;30778;53.574;7.770;2023-08-24T04:31:16;5.00;;;2.45;;
45039;SDS011;30778;53.574;7.770;2023-08-24T04:33:41;3.88;;;3.03;;
45039;SDS011;30778;53.574;7.770;2023-08-24T04:36:07;3.33;;;2.75;;
45039;SDS011;30778;53.574;7.770;2023-08-24T04:38:35;2.67;;;1.95;;
45039;SDS011;30778;53.574;7.770;2023-08-24T04:41:00;2.72;;;2.40;;
45039;SDS011;30778;53.574;7.770;2023-08-24T04:43:26;3.38;;;2.78;;
45039;SDS011;30778;53.574;7.770;2023-08-24T04:45:53;8.35;;;2.17;;
45039;SDS011;30778;53.574;7.770;2023-08-24T04:48:20;4.35;;;2.47;;
45039;SDS011;30778;53.574;7.770;2023-08-24T04:50:46;5.75;;;2.20;;
45039;SDS011;30778;53.574;7.770;2023-08-24T04:53:14;3.38;;;2.45;;
45039;SDS011;30778;53.574;7.770;2023-08-24T04:55:41;3.38;;;3.08;;
45039;SDS011;30778;53.574;7.770;2023-08-24T04:58:07;5.90;;;3.42;;
45039;SDS011;30778;53.574;7.770;2023-08-24T05:00:33;4.82;;;3.15;;
45039;SDS011;30778;53.574;7.770;2023-08-24T05:03:00;4.93;;;3.95;;
45039;SDS011;30778;53.574;7.770;2023-08-24T05:05:28;4.25;;;3.10;;
45039;SDS011;30778;53.574;7.770;2023-08-24T05:07:54;7.05;;;3.28;;
45039;SDS011;30778;53.574;7.770;2023-08-24T05:10:20;4.88;;;3.13;;
45039;SDS011;30778;53.574;7.770;2023-08-24T05:12:46;8.80;;;4.85;;
45039;SDS011;30778;53.574;7.770;2023-08-24T05:15:11;5.55;;;3.25;;
45039;SDS011;30778;53.574;7.770;2023-08-24T05:17:38;10.32;;;2.95;;
45039;SDS011;30778;53.574;7.770;2023-08-24T05:20:05;5.68;;;3.42;;
45039;SDS011;30778;53.574;7.770;2023-08-24T05:22:35;7.05;;;4.40;;
45039;SDS011;30778;53.574;7.770;2023-08-24T05:25:02;4.15;;;3.00;;
45039;SDS011;30778;53.574;7.770;2023-08-24T05:27:27;4.20;;;3.08;;
45039;SDS011;30778;53.574;7.770;2023-08-24T05:29:53;7.85;;;3.17;;
45039;SDS011;30778;53.574;7.770;2023-08-24T05:32:18;6.53;;;3.80;;
45039;SDS011;30778;53.574;7.770;2023-08-24T05:34:45;5.00;;;3.72;;
45039;SDS011;30778;53.574;7.770;2023-08-24T05:37:11;3.60;;;2.63;;
45039;SDS011;30778;53.574;7.770;2023-08-24T05:39:37;9.80;;;3.08;;
45039;SDS011;30778;53.574;7.770;2023-08-24T05:42:03;5.05;;;3.10;;
45039;SDS011;30778;53.574;7.770;2023-08-24T05:44:29;2.88;;;2.15;;
45039;SDS011;30778;53.574;7.770;2023-08-24T05:46:55;4.28;;;2.35;;
45039;SDS011;30778;53.574;7.770;2023-08-24T05:49:20;4.70;;;2.17;;
45039;SDS011;30778;53.574;7.770;2023-08-24T05:51:46;4.20;;;2.83;;
45039;SDS011;30778;53.574;7.770;2023-08-24T05:54:12;3.58;;;1.92;;
45039;SDS011;30778;53.574;7.770;2023-08-24T05:56:39;5.45;;;2.60;;
45039;SDS011;30778;53.574;7.770;2023-08-24T05:59:04;3.33;;;2.05;;
45039;SDS011;30778;53.574;7.770;2023-08-24T06:01:30;5.28;;;2.55;;
45039;SDS011;30778;53.574;7.770;2023-08-24T06:03:57;2.55;;;1.20;;
45039;SDS011;30778;53.574;7.770;2023-08-24T06:06:23;3.58;;;2.17;;
45039;SDS011;30778;53.574;7.770;2023-08-24T06:08:49;5.55;;;1.55;;
45039;SDS011;30778;53.574;7.770;2023-08-24T06:11:14;10.35;;;1.80;;
45039;SDS011;30778;53.574;7.770;2023-08-24T06:13:40;5.40;;;1.73;;
45039;SDS011;30778;53.574;7.770;2023-08-24T06:16:05;8.52;;;1.75;;
45039;SDS011;30778;53.574;7.770;2023-08-24T06:18:31;3.05;;;0.70;;
45039;SDS011;30778;53.574;7.770;2023-08-24T06:20:56;3.72;;;1.27;;
45039;SDS011;30778;53.574;7.770;2023-08-24T06:23:22;4.43;;;1.52;;
45039;SDS011;30778;53.574;7.770;2023-08-24T06:25:47;9.35;;;1.95;;
45039;SDS011;30778;53.574;7.770;2023-08-24T06:28:13;2.67;;;1.58;;
45039;SDS011;30778;53.574;7.770;2023-08-24T06:30:39;5.32;;;1.45;;
45039;SDS011;30778;53.574;7.770;2023-08-24T06:33:06;2.85;;;0.75;;
45039;SDS011;30778;53.574;7.770;2023-08-24T06:35:35;3.00;;;1.70;;
45039;SDS011;30778;53.574;7.770;2023-08-24T06:38:02;3.33;;;1.10;;
45039;SDS011;30778;53.574;7.770;2023-08-24T06:40:28;4.38;;;0.88;;
45039;SDS011;30778;53.574;7.770;2023-08-24T06:42:55;4.60;;;1.00;;
45039;SDS011;30778;53.574;7.770;2023-08-24T06:45:24;4.70;;;0.82;;
45039;SDS011;30778;53.574;7.770;2023-08-24T06:47:50;1.88;;;0.60;;
45039;SDS011;30778;53.574;7.770;2023-08-24T06:50:16;1.80;;;0.60;;
45039;SDS011;30778;53.574;7.770;2023-08-24T06:52:42;1.63;;;0.63;;
45039;SDS011;30778;53.574;7.770;2023-08-24T06:55:10;3.65;;;0.60;;
45039;SDS011;30778;53.574;7.770;2023-08-24T06:57:37;3.15;;;0.52;;
45039;SDS011;30778;53.574;7.770;2023-08-24T07:00:03;2.75;;;0.30;;
45039;SDS011;30778;53.574;7.770;2023-08-24T07:02:34;5.22;;;0.40;;
45039;SDS011;30778;53.574;7.770;2023-08-24T07:05:02;2.97;;;0.40;;
45039;SDS011;30778;53.574;7.770;2023-08-24T07:07:30;2.47;;;0.50;;
45039;SDS011;30778;53.574;7.770;2023-08-24T07:09:55;3.05;;;0.55;;
45039;SDS011;30778;53.574;7.770;2023-08-24T07:12:21;1.30;;;0.20;;
45039;SDS011;30778;53.574;7.770;2023-08-24T07:14:47;3.35;;;0.47;;
45039;SDS011;30778;53.574;7.770;2023-08-24T07:17:12;1.77;;;0.47;;
45039;SDS011;30778;53.574;7.770;2023-08-24T07:19:38;2.97;;;0.50;;
45039;SDS011;30778;53.574;7.770;2023-08-24T07:22:04;2.65;;;0.50;;
45039;SDS011;30778;53.574;7.770;2023-08-24T07:24:29;2.25;;;0.30;;
45039;SDS011;30778;53.574;7.770;2023-08-24T07:26:55;5.40;;;0.60;;
45039;SDS011;30778;53.574;7.770;2023-08-24T07:29:21;2.78;;;0.45;;
45039;SDS011;30778;53.574;7.770;2023-08-24T07:31:47;2.70;;;0.30;;
45039;SDS011;30778;53.574;7.770;2023-08-24T07:34:13;4.13;;;0.30;;
45039;SDS011;30778;53.574;7.770;2023-08-24T07:36:39;2.22;;;0.70;;
45039;SDS011;30778;53.574;7.770;2023-08-24T07:39:05;7.65;;;0.30;;
45039;SDS011;30778;53.574;7.770;2023-08-24T07:41:30;2.38;;;0.30;;
45039;SDS011;30778;53.574;7.770;2023-08-24T07:43:59;4.85;;;0.30;;
45039;SDS011;30778;53.574;7.770;2023-08-24T07:46:24;4.47;;;0.40;;
45039;SDS011;30778;53.574;7.770;2023-08-24T07:48:50;4.28;;;0.40;;
45039;SDS011;30778;53.574;7.770;2023-08-24T07:51:15;3.95;;;0.60;;
45039;SDS011;30778;53.574;7.770;2023-08-24T07:53:41;2.80;;;0.40;;
45039;SDS011;30778;53.574;7.770;2023-08-24T07:56:06;3.20;;;0.60;;
45039;SDS011;30778;53.574;7.770;2023-08-24T07:58:32;2.83;;;0.40;;
45039;SDS011;30778;53.574;7.770;2023-08-24T08:01:01;4.75;;;0.60;;
45039;SDS011;30778;53.574;7.770;2023-08-24T08:03:26;3.33;;;0.57;;
45039;SDS011;30778;53.574;7.770;2023-08-24T08:05:52;4.13;;;0.77;;
45039;SDS011;30778;53.574;7.770;2023-08-24T08:08:18;2.08;;;0.47;;
45039;SDS011;30778;53.574;7.770;2023-08-24T08:10:44;6.25;;;0.82;;
45039;SDS011;30778;53.574;7.770;2023-08-24T08:13:09;3.80;;;0.80;;
45039;SDS011;30778;53.574;7.770;2023-08-24T08:15:38;2.95;;;0.63;;
45039;SDS011;30778;53.574;7.770;2023-08-24T08:18:04;5.60;;;0.93;;
45039;SDS011;30778;53.574;7.770;2023-08-24T08:20:30;1.30;;;0.28;;
45039;SDS011;30778;53.574;7.770;2023-08-24T08:22:56;1.40;;;0.43;;
45039;SDS011;30778;53.574;7.770;2023-08-24T08:25:22;1.55;;;0.95;;
45039;SDS011;30778;53.574;7.770;2023-08-24T08:27:47;4.63;;;0.80;;
45039;SDS011;30778;53.574;7.770;2023-08-24T08:30:14;1.73;;;0.70;;
45039;SDS011;30778;53.574;7.770;2023-08-24T08:32:40;4.32;;;0.75;;
45039;SDS011;30778;53.574;7.770;2023-08-24T08:35:06;1.02;;;0.40;;
45039;SDS011;30778;53.574;7.770;2023-08-24T08:37:32;1.17;;;0.30;;
45039;SDS011;30778;53.574;7.770;2023-08-24T08:39:58;1.15;;;0.60;;
45039;SDS011;30778;53.574;7.770;2023-08-24T08:42:23;3.20;;;0.40;;
45039;SDS011;30778;53.574;7.770;2023-08-24T08:44:49;2.28;;;0.50;;
45039;SDS011;30778;53.574;7.770;2023-08-24T08:47:19;2.70;;;0.65;;
45039;SDS011;30778;53.574;7.770;2023-08-24T08:49:46;1.17;;;0.60;;
45039;SDS011;30778;53.574;7.770;2023-08-24T08:52:13;2.55;;;0.95;;
45039;SDS011;30778;53.574;7.770;2023-08-24T08:54:38;2.20;;;0.35;;
45039;SDS011;30778;53.574;7.770;2023-08-24T08:57:05;2.60;;;0.73;;
45039;SDS011;30778;53.574;7.770;2023-08-24T08:59:32;2.25;;;0.30;;
45039;SDS011;30778;53.574;7.770;2023-08-24T09:01:58;1.60;;;0.47;;
45039;SDS011;30778;53.574;7.770;2023-08-24T09:04:29;2.70;;;0.50;;
45039;SDS011;30778;53.574;7.770;2023-08-24T09:06:57;1.60;;;0.65;;
45039;SDS011;30778;53.574;7.770;2023-08-24T09:09:26;2.88;;;0.50;;
45039;SDS011;30778;53.574;7.770;2023-08-24T09:11:52;1.35;;;0.55;;
45039;SDS011;30778;53.574;7.770;2023-08-24T09:14:18;1.75;;;0.47;;
45039;SDS011;30778;53.574;7.770;2023-08-24T09:16:44;4.43;;;0.88;;
45039;SDS011;30778;53.574;7.770;2023-08-24T09:19:11;1.60;;;0.38;;
45039;SDS011;30778;53.574;7.770;2023-08-24T09:21:37;2.63;;;0.52;;
45039;SDS011;30778;53.574;7.770;2023-08-24T09:24:05;3.45;;;0.65;;
45039;SDS011;30778;53.574;7.770;2023-08-24T09:26:32;2.45;;;0.65;;
45039;SDS011;30778;53.574;7.770;2023-08-24T09:28:59;5.97;;;0.65;;
45039;SDS011;30778;53.574;7.770;2023-08-24T09:31:44;2.83;;;0.80;;
45039;SDS011;30778;53.574;7.770;2023-08-24T09:34:09;9.23;;;1.05;;
45039;SDS011;30778;53.574;7.770;2023-08-24T09:36:36;3.08;;;0.82;;
45039;SDS011;30778;53.574;7.770;2023-08-24T09:39:03;7.72;;;0.70;;
45039;SDS011;30778;53.574;7.770;2023-08-24T09:41:39;3.15;;;1.15;;
45039;SDS011;30778;53.574;7.770;2023-08-24T09:44:11;1.80;;;0.55;;
45039;SDS011;30778;53.574;7.770;2023-08-24T09:46:37;2.10;;;0.75;;
45039;SDS011;30778;53.574;7.770;2023-08-24T09:49:06;3.03;;;0.60;;
45039;SDS011;30778;53.574;7.770;2023-08-24T09:51:33;3.65;;;1.20;;
45039;SDS011;30778;53.574;7.770;2023-08-24T09:54:01;1.83;;;1.00;;
45039;SDS011;30778;53.574;7.770;2023-08-24T09:56:31;5.28;;;2.25;;
45039;SDS011;30778;53.574;7.770;2023-08-24T09:59:00;4.28;;;0.80;;
45039;SDS011;30778;53.574;7.770;2023-08-24T10:01:34;6.28;;;1.05;;
45039;SDS011;30778;53.574;7.770;2023-08-24T10:04:01;3.08;;;1.08;;
45039;SDS011;30778;53.574;7.770;2023-08-24T10:06:30;7.43;;;1.77;;
45039;SDS011;30778;53.574;7.770;2023-08-24T10:08:58;5.82;;;1.40;;
45039;SDS011;30778;53.574;7.770;2023-08-24T10:11:29;5.10;;;1.17;;
45039;SDS011;30778;53.574;7.770;2023-08-24T10:14:01;8.25;;;1.52;;
45039;SDS011;30778;53.574;7.770;2023-08-24T10:16:33;5.85;;;1.33;;
45039;SDS011;30778;53.574;7.770;2023-08-24T10:19:01;4.93;;;1.45;;
45039;SDS011;30778;53.574;7.770;2023-08-24T10:21:28;3.70;;;1.85;;
45039;SDS011;30778;53.574;7.770;2023-08-24T10:23:54;2.42;;;1.05;;
45039;SDS011;30778;53.574;7.770;2023-08-24T10:26:22;2.63;;;1.25;;
45039;SDS011;30778;53.574;7.770;2023-08-24T10:28:51;2.85;;;1.27;;
45039;SDS011;30778;53.574;7.770;2023-08-24T10:31:18;2.65;;;0.90;;
45039;SDS011;30778;53.574;7.770;2023-08-24T10:33:45;5.13;;;1.88;;
45039;SDS011;30778;53.574;7.770;2023-08-24T10:36:12;4.32;;;1.55;;
45039;SDS011;30778;53.574;7.770;2023-08-24T10:38:40;2.90;;;1.30;;
45039;SDS011;30778;53.574;7.770;2023-08-24T10:41:09;6.63;;;1.55;;
45039;SDS011;30778;53.574;7.770;2023-08-24T10:43:48;4.43;;;2.17;;
45039;SDS011;30778;53.574;7.770;2023-08-24T10:46:15;3.72;;;1.70;;
45039;SDS011;30778;53.574;7.770;2023-08-24T10:53:46;4.88;;;1.70;;
45039;SDS011;30778;53.574;7.770;2023-08-24T10:56:14;6.55;;;2.85;;
45039;SDS011;30778;53.574;7.770;2023-08-24T10:58:46;4.65;;;2.35;;
45039;SDS011;30778;53.574;7.770;2023-08-24T11:01:19;5.57;;;1.60;;
45039;SDS011;30778;53.574;7.770;2023-08-24T11:03:50;3.58;;;1.80;;
45039;SDS011;30778;53.574;7.770;2023-08-24T11:06:24;7.40;;;2.55;;
45039;SDS011;30778;53.574;7.770;2023-08-24T11:11:31;4.10;;;2.55;;
45039;SDS011;30778;53.574;7.770;2023-08-24T11:16:38;3.40;;;2.45;;
45039;SDS011;30778;53.574;7.770;2023-08-24T11:19:06;5.75;;;3.10;;
45039;SDS011;30778;53.574;7.770;2023-08-24T11:21:33;5.35;;;2.70;;
45039;SDS011;30778;53.574;7.770;2023-08-24T11:23:59;7.95;;;3.47;;
45039;SDS011;30778;53.574;7.770;2023-08-24T11:26:25;5.45;;;2.75;;
45039;SDS011;30778;53.574;7.770;2023-08-24T11:28:54;5.53;;;3.05;;
45039;SDS011;30778;53.574;7.770;2023-08-24T11:31:20;4.43;;;2.70;;
45039;SDS011;30778;53.574;7.770;2023-08-24T11:33:46;6.45;;;3.40;;
45039;SDS011;30778;53.574;7.770;2023-08-24T11:36:11;6.70;;;2.92;;
45039;SDS011;30778;53.574;7.770;2023-08-24T11:38:38;6.85;;;3.75;;
45039;SDS011;30778;53.574;7.770;2023-08-24T11:41:17;4.93;;;3.20;;
45039;SDS011;30778;53.574;7.770;2023-08-24T11:43:43;7.63;;;2.92;;
45039;SDS011;30778;53.574;7.770;2023-08-24T11:46:10;6.45;;;2.40;;
45039;SDS011;30778;53.574;7.770;2023-08-24T11:48:37;4.97;;;3.35;;
45039;SDS011;30778;53.574;7.770;2023-08-24T11:51:07;7.50;;;4.13;;
45039;SDS011;30778;53.574;7.770;2023-08-24T11:53:36;7.78;;;3.15;;
45039;SDS011;30778;53.574;7.770;2023-08-24T11:56:02;7.20;;;2.58;;
45039;SDS011;30778;53.574;7.770;2023-08-24T11:58:28;7.90;;;2.40;;
45039;SDS011;30778;53.574;7.770;2023-08-24T12:00:53;8.73;;;3.10;;
45039;SDS011;30778;53.574;7.770;2023-08-24T12:03:19;8.70;;;3.22;;
45039;SDS011;30778;53.574;7.770;2023-08-24T12:05:45;6.00;;;2.90;;
45039;SDS011;30778;53.574;7.770;2023-08-24T12:08:11;5.03;;;3.67;;
45039;SDS011;30778;53.574;7.770;2023-08-24T12:10:41;6.20;;;2.95;;
45039;SDS011;30778;53.574;7.770;2023-08-24T12:13:09;9.30;;;2.85;;
45039;SDS011;30778;53.574;7.770;2023-08-24T12:15:37;6.53;;;2.90;;
45039;SDS011;30778;53.574;7.770;2023-08-24T12:18:12;7.60;;;2.78;;
45039;SDS011;30778;53.574;7.770;2023-08-24T12:20:42;6.40;;;2.85;;
45039;SDS011;30778;53.574;7.770;2023-08-24T12:23:09;7.53;;;2.63;;
45039;SDS011;30778;53.574;7.770;2023-08-24T12:25:42;6.18;;;2.92;;
45039;SDS011;30778;53.574;7.770;2023-08-24T12:28:12;4.45;;;2.03;;
45039;SDS011;30778;53.574;7.770;2023-08-24T12:30:50;2.78;;;1.10;;
45039;SDS011;30778;53.574;7.770;2023-08-24T12:33:27;5.95;;;1.85;;
45039;SDS011;30778;53.574;7.770;2023-08-24T12:35:54;6.20;;;2.15;;
45039;SDS011;30778;53.574;7.770;2023-08-24T12:38:20;7.15;;;1.83;;
45039;SDS011;30778;53.574;7.770;2023-08-24T12:40:49;4.15;;;2.08;;
45039;SDS011;30778;53.574;7.770;2023-08-24T12:43:15;5.03;;;2.03;;
45039;SDS011;30778;53.574;7.770;2023-08-24T12:45:41;4.20;;;1.88;;
45039;SDS011;30778;53.574;7.770;2023-08-24T12:48:07;9.82;;;2.22;;
45039;SDS011;30778;53.574;7.770;2023-08-24T12:50:36;8.68;;;2.58;;
45039;SDS011;30778;53.574;7.770;2023-08-24T12:53:03;6.22;;;1.90;;
45039;SDS011;30778;53.574;7.770;2023-08-24T12:55:31;5.63;;;2.35;;
45039;SDS011;30778;53.574;7.770;2023-08-24T12:57:58;5.53;;;2.10;;
45039;SDS011;30778;53.574;7.770;2023-08-24T13:00:24;4.20;;;2.20;;
45039;SDS011;30778;53.574;7.770;2023-08-24T13:02:49;8.50;;;2.65;;
45039;SDS011;30778;53.574;7.770;2023-08-24T13:05:15;11.30;;;2.30;;
45039;SDS011;30778;53.574;7.770;2023-08-24T13:07:41;6.05;;;2.38;;
45039;SDS011;30778;53.574;7.770;2023-08-24T13:10:07;5.38;;;1.90;;
45039;SDS011;30778;53.574;7.770;2023-08-24T13:12:34;2.70;;;2.15;;
45039;SDS011;30778;53.574;7.770;2023-08-24T13:15:00;8.07;;;2.42;;
45039;SDS011;30778;53.574;7.770;2023-08-24T13:17:27;13.07;;;2.65;;
45039;SDS011;30778;53.574;7.770;2023-08-24T13:19:53;2.90;;;1.40;;
45039;SDS011;30778;53.574;7.770;2023-08-24T13:22:18;3.58;;;2.03;;
45039;SDS011;30778;53.574;7.770;2023-08-24T13:24:44;4.68;;;2.60;;
45039;SDS011;30778;53.574;7.770;2023-08-24T13:27:10;6.70;;;1.83;;
45039;SDS011;30778;53.574;7.770;2023-08-24T13:29:36;4.03;;;2.72;;
45039;SDS011;30778;53.574;7.770;2023-08-24T13:32:02;4.10;;;2.65;;
45039;SDS011;30778;53.574;7.770;2023-08-24T13:34:30;4.40;;;2.28;;
45039;SDS011;30778;53.574;7.770;2023-08-24T13:36:56;4.30;;;2.20;;
45039;SDS011;30778;53.574;7.770;2023-08-24T13:39:23;5.65;;;2.50;;
45039;SDS011;30778;53.574;7.770;2023-08-24T13:41:50;3.90;;;2.30;;
45039;SDS011;30778;53.574;7.770;2023-08-24T13:44:16;7.00;;;2.67;;
45039;SDS011;30778;53.574;7.770;2023-08-24T13:46:44;3.63;;;2.30;;
45039;SDS011;30778;53.574;7.770;2023-08-24T13:49:09;3.47;;;2.70;;
45039;SDS011;30778;53.574;7.770;2023-08-24T13:51:35;4.63;;;2.15;;
45039;SDS011;30778;53.574;7.770;2023-08-24T13:54:00;4.25;;;2.17;;
45039;SDS011;30778;53.574;7.770;2023-08-24T13:56:25;3.95;;;2.83;;
45039;SDS011;30778;53.574;7.770;2023-08-24T13:58:51;8.65;;;2.95;;
45039;SDS011;30778;53.574;7.770;2023-08-24T14:01:16;4.45;;;2.45;;
45039;SDS011;30778;53.574;7.770;2023-08-24T14:03:42;4.35;;;2.10;;
45039;SDS011;30778;53.574;7.770;2023-08-24T14:06:08;5.10;;;3.35;;
45039;SDS011;30778;53.574;7.770;2023-08-24T14:08:36;7.88;;;2.63;;
45039;SDS011;30778;53.574;7.770;2023-08-24T14:11:02;6.70;;;3.53;;
45039;SDS011;30778;53.574;7.770;2023-08-24T14:13:28;3.17;;;2.67;;
45039;SDS011;30778;53.574;7.770;2023-08-24T14:15:54;5.03;;;2.75;;
45039;SDS011;30778;53.574;7.770;2023-08-24T14:18:21;5.43;;;2.38;;
45039;SDS011;30778;53.574;7.770;2023-08-24T14:20:47;4.90;;;2.28;;
45039;SDS011;30778;53.574;7.770;2023-08-24T14:23:12;3.42;;;1.73;;
45039;SDS011;30778;53.574;7.770;2023-08-24T14:25:41;6.90;;;2.20;;
45039;SDS011;30778;53.574;7.770;2023-08-24T14:28:06;6.22;;;2.33;;
45039;SDS011;30778;53.574;7.770;2023-08-24T14:30:32;7.15;;;2.95;;
45039;SDS011;30778;53.574;7.770;2023-08-24T14:32:58;3.33;;;2.80;;
45039;SDS011;30778;53.574;7.770;2023-08-24T14:35:23;5.10;;;2.63;;
45039;SDS011;30778;53.574;7.770;2023-08-24T14:37:49;6.82;;;3.30;;
45039;SDS011;30778;53.574;7.770;2023-08-24T14:40:14;4.68;;;2.58;;
45039;SDS011;30778;53.574;7.770;2023-08-24T14:42:41;4.93;;;2.80;;
45039;SDS011;30778;53.574;7.770;2023-08-24T14:45:07;2.97;;;1.98;;
45039;SDS011;30778;53.574;7.770;2023-08-24T14:47:32;3.28;;;2.85;;
45039;SDS011;30778;53.574;7.770;2023-08-24T14:49:58;5.57;;;2.70;;
45039;SDS011;30778;53.574;7.770;2023-08-24T14:52:23;9.40;;;3.42;;
45039;SDS011;30778;53.574;7.770;2023-08-24T14:54:49;3.83;;;3.03;;
45039;SDS011;30778;53.574;7.770;2023-08-24T14:57:14;8.02;;;4.70;;
45039;SDS011;30778;53.574;7.770;2023-08-24T14:59:40;8.75;;;3.58;;
45039;SDS011;30778;53.574;7.770;2023-08-24T15:02:05;8.32;;;3.85;;